Brilliance Of The Seas — C6SJ5 — position and weather

sailwx.info

Track history (hours):
 
Tides and Currents Weather Stations Pressure Air Temp Water Temp Dewpoint Dewpoint Depression Visibility Wind Speed Wind Dir Waves Ship Positions

Brilliance Of The Seas

Operator: Royal Caribbean Cruises Ltd

Last reported at 2014-Dec-19 01:33 UTC. Time now 2014-Dec-19 07:17 UTC.
Position N 20°33' W 086°58'.

Type: Ship. MMSI: 311361000.

Date/timePositionNaut miles runAvg speedWind from/ knotsBaromVisibWave heightAir tempDewpointWater temp
2014-Dec-19 01:33N 20°33' W 086°58'5 4.3
2014-Dec-19 00:30N 20°29' W 086°59'0 0.0
2014-Dec-18 23:30N 20°29' W 086°59'0 0.0
2014-Dec-18 22:30N 20°29' W 086°59'0 0.0
2014-Dec-18 21:24N 20°29' W 086°59'0 0.0
2014-Dec-18 20:33N 20°29' W 086°59'0 0.0
2014-Dec-18 19:33N 20°29' W 086°59'0 0.0
2014-Dec-18 18:33N 20°29' W 086°59'0 0.0
2014-Dec-18 16:27N 20°29' W 086°59'0 0.2
2014-Dec-18 15:34N 20°29' W 086°59'  
2014-Dec-16 02:32N 27°07' W 083°10'5513.8
2014-Dec-15 22:34N 27°48' W 082°28'9 8.5
2014-Dec-15 21:33N 27°56' W 082°27'0 0.3
2014-Dec-15 20:32N 27°57' W 082°27'0 0.0
2014-Dec-15 19:32N 27°57' W 082°27'0 0.0
2014-Dec-15 18:32N 27°57' W 082°27'0 0.0
2014-Dec-15 17:32N 27°57' W 082°27'0 0.0
2014-Dec-15 16:32N 27°57' W 082°27'0 0.0
2014-Dec-15 15:32N 27°57' W 082°27'0 0.0
2014-Dec-15 14:32N 27°57' W 082°27'0 0.0
2014-Dec-15 13:32N 27°57' W 082°27'0 0.0
2014-Dec-15 12:32N 27°57' W 082°27'0 0.1
2014-Dec-15 11:33N 27°57' W 082°27'5 5.4
2014-Dec-15 10:33N 27°51' W 082°27'1513.7
2014-Dec-15 09:29N 27°39' W 082°36'48914.4
2014-Dec-13 23:33N 20°32' W 086°58'4 3.3
2014-Dec-13 22:30N 20°29' W 086°59'0 0.0
2014-Dec-13 21:30N 20°29' W 086°59'0 0.0
2014-Dec-13 20:30N 20°29' W 086°59'0 0.0
2014-Dec-13 19:12N 20°29' W 086°59'0 0.0
2014-Dec-13 18:33N 20°29' W 086°59'0 0.0
2014-Dec-13 17:24N 20°29' W 086°59'0 0.0
2014-Dec-13 16:30N 20°29' W 086°59'0 0.0
2014-Dec-13 15:30N 20°29' W 086°59'0 0.0
2014-Dec-13 14:30N 20°29' W 086°59'0 0.0
2014-Dec-13 13:33N 20°29' W 086°59'0 0.3
2014-Dec-13 12:33N 20°29' W 086°59'49913.1
2014-Dec-11 22:26N 27°45' W 082°31'1011.6
2014-Dec-11 21:33N 27°54' W 082°26'2 2.4
2014-Dec-11 20:31N 27°57' W 082°27'0 0.0
2014-Dec-11 19:31N 27°57' W 082°27'0 0.0
2014-Dec-11 18:31N 27°57' W 082°27'0 0.0
2014-Dec-11 17:31N 27°57' W 082°27'0 0.0
2014-Dec-11 16:31N 27°57' W 082°27'0 0.0
2014-Dec-11 15:31N 27°57' W 082°27'0 0.0
2014-Dec-11 14:31N 27°57' W 082°27'0 0.0
2014-Dec-11 13:31N 27°57' W 082°27'0 0.0
2014-Dec-11 12:31N 27°57' W 082°27'0 0.2
2014-Dec-11 11:33N 27°57' W 082°27'6 6.2
2014-Dec-11 10:33N 27°50' W 082°27'50614.5
2014-Dec-09 23:33N 20°29' W 086°59'0 0.4
2014-Dec-09 22:32N 20°29' W 086°59'0 0.0
2014-Dec-09 21:32N 20°29' W 086°59'0 0.0
2014-Dec-09 20:32N 20°29' W 086°59'0 0.0
2014-Dec-09 19:32N 20°29' W 086°59'0 0.0
2014-Dec-09 18:29N 20°29' W 086°59'0 0.0
2014-Dec-09 17:20N 20°29' W 086°59'0 0.0
2014-Dec-09 16:29N 20°29' W 086°59'0 0.0
2014-Dec-09 15:29N 20°29' W 086°59'0 0.0
2014-Dec-09 14:29N 20°29' W 086°59'0 0.0
2014-Dec-09 13:23N 20°29' W 086°59'0 0.0
2014-Dec-09 12:33N 20°29' W 086°59'  
Track history (hours):
 
Tides and Currents Weather Stations Pressure Air Temp Water Temp Dewpoint Dewpoint Depression Visibility Wind Speed Wind Dir Waves Ship Positions

Brilliance Of The Seas

Operator: Royal Caribbean Cruises Ltd

Last reported at 2014-Dec-19 01:33 UTC. Time now 2014-Dec-19 07:17 UTC.
Position N 20°33' W 086°58'.

Type: Ship. MMSI: 311361000.

Date/timePositionNaut miles runAvg speedWind from/ knotsBaromVisibWave heightAir tempDewpointWater temp
2014-Dec-19 01:33N 20°33' W 086°58'5 4.3
2014-Dec-19 00:30N 20°29' W 086°59'0 0.0
2014-Dec-18 23:30N 20°29' W 086°59'0 0.0
2014-Dec-18 22:30N 20°29' W 086°59'0 0.0
2014-Dec-18 21:24N 20°29' W 086°59'0 0.0
2014-Dec-18 20:33N 20°29' W 086°59'0 0.0
2014-Dec-18 19:33N 20°29' W 086°59'0 0.0
2014-Dec-18 18:33N 20°29' W 086°59'0 0.0
2014-Dec-18 16:27N 20°29' W 086°59'0 0.2
2014-Dec-18 15:34N 20°29' W 086°59'  
2014-Dec-16 02:32N 27°07' W 083°10'5513.8
2014-Dec-15 22:34N 27°48' W 082°28'9 8.5
2014-Dec-15 21:33N 27°56' W 082°27'0 0.3
2014-Dec-15 20:32N 27°57' W 082°27'0 0.0
2014-Dec-15 19:32N 27°57' W 082°27'0 0.0
2014-Dec-15 18:32N 27°57' W 082°27'0 0.0
2014-Dec-15 17:32N 27°57' W 082°27'0 0.0
2014-Dec-15 16:32N 27°57' W 082°27'0 0.0
2014-Dec-15 15:32N 27°57' W 082°27'0 0.0
2014-Dec-15 14:32N 27°57' W 082°27'0 0.0
2014-Dec-15 13:32N 27°57' W 082°27'0 0.0
2014-Dec-15 12:32N 27°57' W 082°27'0 0.1
2014-Dec-15 11:33N 27°57' W 082°27'5 5.4
2014-Dec-15 10:33N 27°51' W 082°27'1513.7
2014-Dec-15 09:29N 27°39' W 082°36'48914.4
2014-Dec-13 23:33N 20°32' W 086°58'4 3.3
2014-Dec-13 22:30N 20°29' W 086°59'0 0.0
2014-Dec-13 21:30N 20°29' W 086°59'0 0.0
2014-Dec-13 20:30N 20°29' W 086°59'0 0.0
2014-Dec-13 19:12N 20°29' W 086°59'0 0.0
2014-Dec-13 18:33N 20°29' W 086°59'0 0.0
2014-Dec-13 17:24N 20°29' W 086°59'0 0.0
2014-Dec-13 16:30N 20°29' W 086°59'0 0.0
2014-Dec-13 15:30N 20°29' W 086°59'0 0.0
2014-Dec-13 14:30N 20°29' W 086°59'0 0.0
2014-Dec-13 13:33N 20°29' W 086°59'0 0.3
2014-Dec-13 12:33N 20°29' W 086°59'49913.1
2014-Dec-11 22:26N 27°45' W 082°31'1011.6
2014-Dec-11 21:33N 27°54' W 082°26'2 2.4
2014-Dec-11 20:31N 27°57' W 082°27'0 0.0
2014-Dec-11 19:31N 27°57' W 082°27'0 0.0
2014-Dec-11 18:31N 27°57' W 082°27'0 0.0
2014-Dec-11 17:31N 27°57' W 082°27'0 0.0
2014-Dec-11 16:31N 27°57' W 082°27'0 0.0
2014-Dec-11 15:31N 27°57' W 082°27'0 0.0
2014-Dec-11 14:31N 27°57' W 082°27'0 0.0
2014-Dec-11 13:31N 27°57' W 082°27'0 0.0
2014-Dec-11 12:31N 27°57' W 082°27'0 0.2
2014-Dec-11 11:33N 27°57' W 082°27'6 6.2
2014-Dec-11 10:33N 27°50' W 082°27'50614.5
2014-Dec-09 23:33N 20°29' W 086°59'0 0.4
2014-Dec-09 22:32N 20°29' W 086°59'0 0.0
2014-Dec-09 21:32N 20°29' W 086°59'0 0.0
2014-Dec-09 20:32N 20°29' W 086°59'0 0.0
2014-Dec-09 19:32N 20°29' W 086°59'0 0.0
2014-Dec-09 18:29N 20°29' W 086°59'0 0.0
2014-Dec-09 17:20N 20°29' W 086°59'0 0.0
2014-Dec-09 16:29N 20°29' W 086°59'0 0.0
2014-Dec-09 15:29N 20°29' W 086°59'0 0.0
2014-Dec-09 14:29N 20°29' W 086°59'0 0.0
2014-Dec-09 13:23N 20°29' W 086°59'0 0.0
2014-Dec-09 12:33N 20°29' W 086°59'  

Dump ship's entire track history